sensor_id;sensor_type;location;lat;lon;timestamp;P1;durP1;ratioP1;P2;durP2;ratioP2
68507;SDS011;55510;49.560;19.090;2022-12-07T00:02:42;7.10;;;2.83;;
68507;SDS011;55510;49.560;19.090;2022-12-07T00:05:43;4.63;;;1.90;;
68507;SDS011;55510;49.560;19.090;2022-12-07T00:08:44;4.63;;;1.33;;
68507;SDS011;55510;49.560;19.090;2022-12-07T00:11:47;5.20;;;1.50;;
68507;SDS011;55510;49.560;19.090;2022-12-07T00:14:50;4.70;;;1.08;;
68507;SDS011;55510;49.560;19.090;2022-12-07T00:17:50;4.63;;;1.50;;
68507;SDS011;55510;49.560;19.090;2022-12-07T00:20:51;4.32;;;1.17;;
68507;SDS011;55510;49.560;19.090;2022-12-07T00:23:52;5.67;;;2.07;;
68507;SDS011;55510;49.560;19.090;2022-12-07T00:26:54;3.97;;;1.02;;
68507;SDS011;55510;49.560;19.090;2022-12-07T00:29:54;4.70;;;0.83;;
68507;SDS011;55510;49.560;19.090;2022-12-07T00:32:55;4.45;;;1.20;;
68507;SDS011;55510;49.560;19.090;2022-12-07T00:35:56;5.20;;;1.70;;
68507;SDS011;55510;49.560;19.090;2022-12-07T00:38:59;4.88;;;1.50;;
68507;SDS011;55510;49.560;19.090;2022-12-07T00:42:03;5.03;;;1.65;;
68507;SDS011;55510;49.560;19.090;2022-12-07T00:45:04;6.30;;;1.57;;
68507;SDS011;55510;49.560;19.090;2022-12-07T00:48:05;5.32;;;1.38;;
68507;SDS011;55510;49.560;19.090;2022-12-07T00:51:05;4.47;;;1.02;;
68507;SDS011;55510;49.560;19.090;2022-12-07T00:54:07;4.87;;;1.30;;
68507;SDS011;55510;49.560;19.090;2022-12-07T00:57:08;4.40;;;1.10;;
68507;SDS011;55510;49.560;19.090;2022-12-07T01:00:08;6.73;;;1.73;;
68507;SDS011;55510;49.560;19.090;2022-12-07T01:03:11;5.00;;;1.50;;
68507;SDS011;55510;49.560;19.090;2022-12-07T01:06:16;5.35;;;1.98;;
68507;SDS011;55510;49.560;19.090;2022-12-07T01:09:19;6.30;;;1.60;;
68507;SDS011;55510;49.560;19.090;2022-12-07T01:12:20;8.00;;;3.77;;
68507;SDS011;55510;49.560;19.090;2022-12-07T01:15:21;8.32;;;3.80;;
68507;SDS011;55510;49.560;19.090;2022-12-07T01:18:21;6.50;;;2.60;;
68507;SDS011;55510;49.560;19.090;2022-12-07T01:21:23;10.30;;;2.77;;
68507;SDS011;55510;49.560;19.090;2022-12-07T01:24:28;6.32;;;2.38;;
68507;SDS011;55510;49.560;19.090;2022-12-07T01:27:29;5.82;;;2.40;;
68507;SDS011;55510;49.560;19.090;2022-12-07T01:30:30;7.10;;;2.43;;
68507;SDS011;55510;49.560;19.090;2022-12-07T01:33:32;6.35;;;2.03;;
68507;SDS011;55510;49.560;19.090;2022-12-07T01:36:35;5.47;;;1.57;;
68507;SDS011;55510;49.560;19.090;2022-12-07T01:39:36;4.70;;;1.60;;
68507;SDS011;55510;49.560;19.090;2022-12-07T01:42:37;4.67;;;1.50;;
68507;SDS011;55510;49.560;19.090;2022-12-07T01:45:39;5.40;;;1.60;;
68507;SDS011;55510;49.560;19.090;2022-12-07T01:48:41;5.85;;;1.52;;
68507;SDS011;55510;49.560;19.090;2022-12-07T01:51:43;4.57;;;1.35;;
68507;SDS011;55510;49.560;19.090;2022-12-07T01:54:47;5.43;;;1.63;;
68507;SDS011;55510;49.560;19.090;2022-12-07T01:57:51;5.38;;;1.95;;
68507;SDS011;55510;49.560;19.090;2022-12-07T02:00:53;5.63;;;2.20;;
68507;SDS011;55510;49.560;19.090;2022-12-07T02:03:54;6.13;;;2.13;;
68507;SDS011;55510;49.560;19.090;2022-12-07T02:06:55;6.13;;;2.13;;
68507;SDS011;55510;49.560;19.090;2022-12-07T02:10:11;6.03;;;1.70;;
68507;SDS011;55510;49.560;19.090;2022-12-07T02:13:24;5.10;;;1.95;;
68507;SDS011;55510;49.560;19.090;2022-12-07T02:16:35;5.47;;;2.20;;
68507;SDS011;55510;49.560;19.090;2022-12-07T02:33:02;7.72;;;3.10;;
68507;SDS011;55510;49.560;19.090;2022-12-07T02:36:21;8.32;;;3.42;;
68507;SDS011;55510;49.560;19.090;2022-12-07T02:39:25;6.77;;;2.50;;
68507;SDS011;55510;49.560;19.090;2022-12-07T02:42:38;6.55;;;1.92;;
68507;SDS011;55510;49.560;19.090;2022-12-07T02:45:46;6.63;;;2.25;;
68507;SDS011;55510;49.560;19.090;2022-12-07T02:48:51;7.20;;;2.53;;
68507;SDS011;55510;49.560;19.090;2022-12-07T02:51:53;9.32;;;3.08;;
68507;SDS011;55510;49.560;19.090;2022-12-07T02:54:54;6.93;;;2.37;;
68507;SDS011;55510;49.560;19.090;2022-12-07T03:01:16;5.43;;;1.97;;
68507;SDS011;55510;49.560;19.090;2022-12-07T03:11:30;6.53;;;2.50;;
68507;SDS011;55510;49.560;19.090;2022-12-07T03:14:55;4.70;;;1.83;;
68507;SDS011;55510;49.560;19.090;2022-12-07T03:18:17;4.53;;;2.10;;
68507;SDS011;55510;49.560;19.090;2022-12-07T03:21:23;4.88;;;2.00;;
68507;SDS011;55510;49.560;19.090;2022-12-07T03:24:28;5.35;;;2.40;;
68507;SDS011;55510;49.560;19.090;2022-12-07T03:27:35;4.30;;;2.10;;
68507;SDS011;55510;49.560;19.090;2022-12-07T03:30:45;5.17;;;2.33;;
68507;SDS011;55510;49.560;19.090;2022-12-07T03:33:52;4.70;;;2.03;;
68507;SDS011;55510;49.560;19.090;2022-12-07T03:37:18;3.83;;;1.27;;
68507;SDS011;55510;49.560;19.090;2022-12-07T03:43:43;3.85;;;1.40;;
68507;SDS011;55510;49.560;19.090;2022-12-07T03:47:19;13.33;;;5.03;;
68507;SDS011;55510;49.560;19.090;2022-12-07T03:50:31;25.93;;;11.80;;
68507;SDS011;55510;49.560;19.090;2022-12-07T03:53:59;14.73;;;5.43;;
68507;SDS011;55510;49.560;19.090;2022-12-07T03:57:07;10.02;;;3.78;;
68507;SDS011;55510;49.560;19.090;2022-12-07T04:00:09;26.67;;;10.02;;
68507;SDS011;55510;49.560;19.090;2022-12-07T04:03:11;34.83;;;15.00;;
68507;SDS011;55510;49.560;19.090;2022-12-07T04:06:12;23.70;;;8.00;;
68507;SDS011;55510;49.560;19.090;2022-12-07T04:09:12;28.33;;;10.48;;
68507;SDS011;55510;49.560;19.090;2022-12-07T04:12:14;29.13;;;12.20;;
68507;SDS011;55510;49.560;19.090;2022-12-07T04:15:15;30.40;;;12.35;;
68507;SDS011;55510;49.560;19.090;2022-12-07T04:18:16;23.70;;;9.10;;
68507;SDS011;55510;49.560;19.090;2022-12-07T04:21:16;28.73;;;11.57;;
68507;SDS011;55510;49.560;19.090;2022-12-07T04:24:17;24.60;;;10.30;;
68507;SDS011;55510;49.560;19.090;2022-12-07T04:27:18;125.30;;;47.10;;
68507;SDS011;55510;49.560;19.090;2022-12-07T04:30:19;73.70;;;28.17;;
68507;SDS011;55510;49.560;19.090;2022-12-07T04:33:19;57.22;;;17.83;;
68507;SDS011;55510;49.560;19.090;2022-12-07T04:36:20;60.93;;;20.47;;
68507;SDS011;55510;49.560;19.090;2022-12-07T04:39:23;53.20;;;19.30;;
68507;SDS011;55510;49.560;19.090;2022-12-07T04:42:28;19.00;;;8.25;;
68507;SDS011;55510;49.560;19.090;2022-12-07T04:45:28;19.88;;;8.43;;
68507;SDS011;55510;49.560;19.090;2022-12-07T04:48:29;14.80;;;5.10;;
68507;SDS011;55510;49.560;19.090;2022-12-07T04:51:30;14.27;;;6.60;;
68507;SDS011;55510;49.560;19.090;2022-12-07T04:54:31;10.93;;;3.88;;
68507;SDS011;55510;49.560;19.090;2022-12-07T04:57:31;10.03;;;3.80;;
68507;SDS011;55510;49.560;19.090;2022-12-07T05:00:32;9.20;;;3.28;;
68507;SDS011;55510;49.560;19.090;2022-12-07T05:03:32;6.00;;;2.33;;
68507;SDS011;55510;49.560;19.090;2022-12-07T05:06:33;7.93;;;3.00;;
68507;SDS011;55510;49.560;19.090;2022-12-07T05:09:34;5.70;;;2.27;;
68507;SDS011;55510;49.560;19.090;2022-12-07T05:12:35;6.35;;;2.28;;
68507;SDS011;55510;49.560;19.090;2022-12-07T05:15:35;4.67;;;2.13;;
68507;SDS011;55510;49.560;19.090;2022-12-07T05:18:36;5.57;;;2.47;;
68507;SDS011;55510;49.560;19.090;2022-12-07T05:21:37;8.57;;;5.10;;
68507;SDS011;55510;49.560;19.090;2022-12-07T05:24:38;7.40;;;4.20;;
68507;SDS011;55510;49.560;19.090;2022-12-07T05:27:39;6.20;;;2.90;;
68507;SDS011;55510;49.560;19.090;2022-12-07T05:30:40;7.67;;;2.63;;
68507;SDS011;55510;49.560;19.090;2022-12-07T05:33:40;6.10;;;2.40;;
68507;SDS011;55510;49.560;19.090;2022-12-07T05:36:41;6.93;;;2.57;;
68507;SDS011;55510;49.560;19.090;2022-12-07T05:39:42;8.70;;;3.70;;
68507;SDS011;55510;49.560;19.090;2022-12-07T05:42:43;10.80;;;4.05;;
68507;SDS011;55510;49.560;19.090;2022-12-07T05:45:43;7.33;;;3.00;;
68507;SDS011;55510;49.560;19.090;2022-12-07T05:48:44;7.18;;;2.85;;
68507;SDS011;55510;49.560;19.090;2022-12-07T05:51:45;6.07;;;3.20;;
68507;SDS011;55510;49.560;19.090;2022-12-07T05:54:45;5.57;;;2.13;;
68507;SDS011;55510;49.560;19.090;2022-12-07T05:57:46;6.87;;;3.50;;
68507;SDS011;55510;49.560;19.090;2022-12-07T06:01:05;7.13;;;3.03;;
68507;SDS011;55510;49.560;19.090;2022-12-07T06:04:06;7.17;;;3.63;;
68507;SDS011;55510;49.560;19.090;2022-12-07T06:07:07;6.32;;;2.90;;
68507;SDS011;55510;49.560;19.090;2022-12-07T06:10:08;5.10;;;2.40;;
68507;SDS011;55510;49.560;19.090;2022-12-07T06:13:09;10.70;;;4.13;;
68507;SDS011;55510;49.560;19.090;2022-12-07T06:16:10;5.40;;;2.50;;
68507;SDS011;55510;49.560;19.090;2022-12-07T06:19:11;7.93;;;3.20;;
68507;SDS011;55510;49.560;19.090;2022-12-07T06:22:11;11.50;;;4.25;;
68507;SDS011;55510;49.560;19.090;2022-12-07T06:25:13;62.25;;;17.92;;
68507;SDS011;55510;49.560;19.090;2022-12-07T06:28:13;26.97;;;9.40;;
68507;SDS011;55510;49.560;19.090;2022-12-07T06:31:14;14.88;;;6.00;;
68507;SDS011;55510;49.560;19.090;2022-12-07T06:34:16;11.80;;;3.87;;
68507;SDS011;55510;49.560;19.090;2022-12-07T06:37:19;7.57;;;2.90;;
68507;SDS011;55510;49.560;19.090;2022-12-07T06:40:20;7.47;;;3.47;;
68507;SDS011;55510;49.560;19.090;2022-12-07T06:43:21;11.38;;;6.18;;
68507;SDS011;55510;49.560;19.090;2022-12-07T06:46:21;9.07;;;4.87;;
68507;SDS011;55510;49.560;19.090;2022-12-07T06:49:22;11.52;;;5.30;;
68507;SDS011;55510;49.560;19.090;2022-12-07T06:52:23;21.13;;;7.33;;
68507;SDS011;55510;49.560;19.090;2022-12-07T06:55:24;9.63;;;4.10;;
68507;SDS011;55510;49.560;19.090;2022-12-07T06:58:24;7.97;;;3.30;;
68507;SDS011;55510;49.560;19.090;2022-12-07T07:01:25;10.57;;;4.70;;
68507;SDS011;55510;49.560;19.090;2022-12-07T07:04:25;11.07;;;4.13;;
68507;SDS011;55510;49.560;19.090;2022-12-07T07:07:28;7.85;;;2.70;;
68507;SDS011;55510;49.560;19.090;2022-12-07T07:10:29;7.00;;;3.03;;
68507;SDS011;55510;49.560;19.090;2022-12-07T07:13:30;10.63;;;3.70;;
68507;SDS011;55510;49.560;19.090;2022-12-07T07:16:31;6.57;;;2.97;;
68507;SDS011;55510;49.560;19.090;2022-12-07T07:19:32;8.13;;;2.67;;
68507;SDS011;55510;49.560;19.090;2022-12-07T07:22:32;7.20;;;2.40;;
68507;SDS011;55510;49.560;19.090;2022-12-07T07:25:33;21.63;;;7.47;;
68507;SDS011;55510;49.560;19.090;2022-12-07T07:28:34;18.77;;;6.68;;
68507;SDS011;55510;49.560;19.090;2022-12-07T07:31:34;8.10;;;3.67;;
68507;SDS011;55510;49.560;19.090;2022-12-07T07:34:35;9.38;;;4.40;;
68507;SDS011;55510;49.560;19.090;2022-12-07T07:37:36;10.43;;;4.60;;
68507;SDS011;55510;49.560;19.090;2022-12-07T07:40:37;12.43;;;5.00;;
68507;SDS011;55510;49.560;19.090;2022-12-07T07:43:40;10.88;;;4.45;;
68507;SDS011;55510;49.560;19.090;2022-12-07T07:46:41;12.53;;;5.23;;
68507;SDS011;55510;49.560;19.090;2022-12-07T07:49:41;7.13;;;3.30;;
68507;SDS011;55510;49.560;19.090;2022-12-07T07:52:42;7.87;;;2.93;;
68507;SDS011;55510;49.560;19.090;2022-12-07T07:55:50;8.40;;;3.38;;
68507;SDS011;55510;49.560;19.090;2022-12-07T07:58:52;7.63;;;3.33;;
68507;SDS011;55510;49.560;19.090;2022-12-07T08:01:53;11.33;;;5.20;;
68507;SDS011;55510;49.560;19.090;2022-12-07T08:04:54;7.43;;;2.95;;
68507;SDS011;55510;49.560;19.090;2022-12-07T08:07:54;7.67;;;3.70;;
68507;SDS011;55510;49.560;19.090;2022-12-07T08:10:55;8.97;;;3.70;;
68507;SDS011;55510;49.560;19.090;2022-12-07T08:13:56;12.68;;;5.68;;
68507;SDS011;55510;49.560;19.090;2022-12-07T08:16:56;8.93;;;4.00;;
68507;SDS011;55510;49.560;19.090;2022-12-07T08:19:57;6.57;;;3.60;;
68507;SDS011;55510;49.560;19.090;2022-12-07T08:22:58;8.63;;;4.35;;
68507;SDS011;55510;49.560;19.090;2022-12-07T08:26:02;8.60;;;3.30;;
68507;SDS011;55510;49.560;19.090;2022-12-07T08:29:04;12.45;;;5.45;;
68507;SDS011;55510;49.560;19.090;2022-12-07T08:32:05;6.30;;;2.80;;
68507;SDS011;55510;49.560;19.090;2022-12-07T08:35:06;6.10;;;3.30;;
68507;SDS011;55510;49.560;19.090;2022-12-07T08:38:08;8.00;;;2.92;;
68507;SDS011;55510;49.560;19.090;2022-12-07T08:41:09;5.90;;;2.70;;
68507;SDS011;55510;49.560;19.090;2022-12-07T08:44:09;9.80;;;3.88;;
68507;SDS011;55510;49.560;19.090;2022-12-07T08:47:10;9.63;;;5.17;;
68507;SDS011;55510;49.560;19.090;2022-12-07T08:50:11;9.48;;;3.75;;
68507;SDS011;55510;49.560;19.090;2022-12-07T08:53:13;19.42;;;6.68;;
68507;SDS011;55510;49.560;19.090;2022-12-07T08:56:14;23.23;;;8.40;;
68507;SDS011;55510;49.560;19.090;2022-12-07T08:59:15;19.60;;;7.50;;
68507;SDS011;55510;49.560;19.090;2022-12-07T09:02:18;17.70;;;7.60;;
68507;SDS011;55510;49.560;19.090;2022-12-07T09:05:18;17.90;;;7.30;;
68507;SDS011;55510;49.560;19.090;2022-12-07T09:08:20;11.70;;;4.68;;
68507;SDS011;55510;49.560;19.090;2022-12-07T09:11:22;67.22;;;16.83;;
68507;SDS011;55510;49.560;19.090;2022-12-07T09:14:24;33.33;;;9.80;;
68507;SDS011;55510;49.560;19.090;2022-12-07T09:17:24;20.07;;;5.87;;
68507;SDS011;55510;49.560;19.090;2022-12-07T09:20:25;13.03;;;4.40;;
68507;SDS011;55510;49.560;19.090;2022-12-07T09:23:25;10.30;;;3.15;;
68507;SDS011;55510;49.560;19.090;2022-12-07T09:26:26;6.30;;;1.97;;
68507;SDS011;55510;49.560;19.090;2022-12-07T09:29:27;7.88;;;2.40;;
68507;SDS011;55510;49.560;19.090;2022-12-07T09:32:28;7.80;;;2.30;;
68507;SDS011;55510;49.560;19.090;2022-12-07T09:35:28;11.00;;;3.80;;
68507;SDS011;55510;49.560;19.090;2022-12-07T09:38:29;8.90;;;4.03;;
68507;SDS011;55510;49.560;19.090;2022-12-07T09:41:30;8.77;;;3.38;;
68507;SDS011;55510;49.560;19.090;2022-12-07T09:44:32;9.10;;;3.13;;
68507;SDS011;55510;49.560;19.090;2022-12-07T09:47:35;10.48;;;3.30;;
68507;SDS011;55510;49.560;19.090;2022-12-07T09:50:35;8.65;;;2.85;;
68507;SDS011;55510;49.560;19.090;2022-12-07T09:53:37;10.83;;;4.20;;
68507;SDS011;55510;49.560;19.090;2022-12-07T09:56:40;8.07;;;1.85;;
68507;SDS011;55510;49.560;19.090;2022-12-07T09:59:40;24.63;;;11.43;;
68507;SDS011;55510;49.560;19.090;2022-12-07T10:02:43;7.53;;;3.40;;
68507;SDS011;55510;49.560;19.090;2022-12-07T10:05:46;6.85;;;2.25;;
68507;SDS011;55510;49.560;19.090;2022-12-07T10:08:49;5.20;;;1.73;;
68507;SDS011;55510;49.560;19.090;2022-12-07T10:15:05;14.13;;;3.83;;
68507;SDS011;55510;49.560;19.090;2022-12-07T10:18:16;12.35;;;3.45;;
68507;SDS011;55510;49.560;19.090;2022-12-07T10:21:29;7.63;;;2.30;;
68507;SDS011;55510;49.560;19.090;2022-12-07T10:24:30;11.02;;;3.50;;
68507;SDS011;55510;49.560;19.090;2022-12-07T10:27:31;5.17;;;1.57;;
68507;SDS011;55510;49.560;19.090;2022-12-07T10:30:33;14.83;;;5.27;;
68507;SDS011;55510;49.560;19.090;2022-12-07T10:33:51;29.00;;;9.32;;
68507;SDS011;55510;49.560;19.090;2022-12-07T10:43:28;12.63;;;4.70;;
68507;SDS011;55510;49.560;19.090;2022-12-07T11:03:12;4.57;;;1.35;;
68507;SDS011;55510;49.560;19.090;2022-12-07T11:13:02;4.70;;;0.90;;
68507;SDS011;55510;49.560;19.090;2022-12-07T11:16:46;5.40;;;2.07;;
68507;SDS011;55510;49.560;19.090;2022-12-07T11:22:59;5.20;;;2.13;;
68507;SDS011;55510;49.560;19.090;2022-12-07T11:26:18;7.35;;;2.97;;
68507;SDS011;55510;49.560;19.090;2022-12-07T11:42:20;10.02;;;3.88;;
68507;SDS011;55510;49.560;19.090;2022-12-07T11:45:32;11.52;;;4.00;;
68507;SDS011;55510;49.560;19.090;2022-12-07T11:48:37;23.40;;;7.70;;
68507;SDS011;55510;49.560;19.090;2022-12-07T11:52:02;10.00;;;3.17;;
68507;SDS011;55510;49.560;19.090;2022-12-07T11:55:12;5.95;;;2.30;;
68507;SDS011;55510;49.560;19.090;2022-12-07T12:01:31;27.92;;;10.02;;
68507;SDS011;55510;49.560;19.090;2022-12-07T12:08:12;5.07;;;1.83;;
68507;SDS011;55510;49.560;19.090;2022-12-07T12:21:30;4.50;;;1.43;;
68507;SDS011;55510;49.560;19.090;2022-12-07T12:24:32;7.43;;;2.15;;
68507;SDS011;55510;49.560;19.090;2022-12-07T12:27:37;7.78;;;2.10;;
68507;SDS011;55510;49.560;19.090;2022-12-07T12:30:39;10.10;;;2.92;;
68507;SDS011;55510;49.560;19.090;2022-12-07T12:33:50;18.88;;;6.80;;
68507;SDS011;55510;49.560;19.090;2022-12-07T12:36:52;20.07;;;6.90;;
68507;SDS011;55510;49.560;19.090;2022-12-07T12:53:25;9.30;;;3.05;;
68507;SDS011;55510;49.560;19.090;2022-12-07T12:59:42;6.87;;;2.23;;
68507;SDS011;55510;49.560;19.090;2022-12-07T13:02:53;6.97;;;2.70;;
68507;SDS011;55510;49.560;19.090;2022-12-07T13:09:42;6.25;;;2.90;;
68507;SDS011;55510;49.560;19.090;2022-12-07T13:12:54;6.88;;;2.50;;
68507;SDS011;55510;49.560;19.090;2022-12-07T13:22:42;9.18;;;3.50;;
68507;SDS011;55510;49.560;19.090;2022-12-07T13:32:22;12.37;;;4.67;;
68507;SDS011;55510;49.560;19.090;2022-12-07T13:35:34;5.93;;;2.47;;
68507;SDS011;55510;49.560;19.090;2022-12-07T13:38:39;7.20;;;2.72;;
68507;SDS011;55510;49.560;19.090;2022-12-07T13:42:18;5.85;;;2.00;;
68507;SDS011;55510;49.560;19.090;2022-12-07T13:45:26;13.82;;;4.15;;
68507;SDS011;55510;49.560;19.090;2022-12-07T13:48:48;11.10;;;3.83;;
68507;SDS011;55510;49.560;19.090;2022-12-07T13:51:50;5.43;;;2.00;;
68507;SDS011;55510;49.560;19.090;2022-12-07T13:54:59;7.85;;;2.80;;
68507;SDS011;55510;49.560;19.090;2022-12-07T13:58:07;6.22;;;2.78;;
68507;SDS011;55510;49.560;19.090;2022-12-07T14:01:09;7.13;;;2.80;;
68507;SDS011;55510;49.560;19.090;2022-12-07T14:07:47;7.45;;;3.30;;
68507;SDS011;55510;49.560;19.090;2022-12-07T14:10:54;6.07;;;2.65;;
68507;SDS011;55510;49.560;19.090;2022-12-07T14:13:58;7.82;;;2.90;;
68507;SDS011;55510;49.560;19.090;2022-12-07T14:17:16;11.93;;;4.67;;
68507;SDS011;55510;49.560;19.090;2022-12-07T14:20:36;11.13;;;4.67;;
68507;SDS011;55510;49.560;19.090;2022-12-07T14:23:40;13.13;;;5.40;;
68507;SDS011;55510;49.560;19.090;2022-12-07T14:26:41;9.10;;;3.65;;
68507;SDS011;55510;49.560;19.090;2022-12-07T14:29:43;8.48;;;3.50;;
68507;SDS011;55510;49.560;19.090;2022-12-07T14:32:44;9.27;;;3.87;;
68507;SDS011;55510;49.560;19.090;2022-12-07T14:35:48;8.07;;;3.40;;
68507;SDS011;55510;49.560;19.090;2022-12-07T14:38:49;7.15;;;2.35;;
68507;SDS011;55510;49.560;19.090;2022-12-07T14:41:50;8.43;;;3.03;;
68507;SDS011;55510;49.560;19.090;2022-12-07T14:44:51;9.90;;;4.40;;
68507;SDS011;55510;49.560;19.090;2022-12-07T14:47:51;7.47;;;3.60;;
68507;SDS011;55510;49.560;19.090;2022-12-07T14:50:52;7.43;;;2.85;;
68507;SDS011;55510;49.560;19.090;2022-12-07T14:53:53;8.15;;;3.60;;
68507;SDS011;55510;49.560;19.090;2022-12-07T14:56:54;8.40;;;3.50;;
68507;SDS011;55510;49.560;19.090;2022-12-07T14:59:54;8.13;;;3.70;;
68507;SDS011;55510;49.560;19.090;2022-12-07T15:02:56;7.27;;;2.90;;
68507;SDS011;55510;49.560;19.090;2022-12-07T15:05:57;9.43;;;3.88;;
68507;SDS011;55510;49.560;19.090;2022-12-07T15:08:59;15.50;;;7.00;;
68507;SDS011;55510;49.560;19.090;2022-12-07T15:12:00;18.07;;;7.80;;
68507;SDS011;55510;49.560;19.090;2022-12-07T15:15:01;16.63;;;6.73;;
68507;SDS011;55510;49.560;19.090;2022-12-07T15:18:02;24.10;;;8.77;;
68507;SDS011;55510;49.560;19.090;2022-12-07T15:21:03;24.37;;;11.20;;
68507;SDS011;55510;49.560;19.090;2022-12-07T15:24:04;30.63;;;12.38;;
68507;SDS011;55510;49.560;19.090;2022-12-07T15:27:05;20.02;;;7.95;;
68507;SDS011;55510;49.560;19.090;2022-12-07T15:30:05;16.93;;;6.93;;
68507;SDS011;55510;49.560;19.090;2022-12-07T15:33:07;14.80;;;6.25;;
68507;SDS011;55510;49.560;19.090;2022-12-07T15:36:08;18.80;;;7.60;;
68507;SDS011;55510;49.560;19.090;2022-12-07T15:39:14;17.88;;;8.30;;
68507;SDS011;55510;49.560;19.090;2022-12-07T15:42:14;14.37;;;7.47;;
68507;SDS011;55510;49.560;19.090;2022-12-07T15:45:19;17.33;;;6.68;;
68507;SDS011;55510;49.560;19.090;2022-12-07T15:48:20;19.37;;;8.47;;
68507;SDS011;55510;49.560;19.090;2022-12-07T15:51:23;16.10;;;7.28;;
68507;SDS011;55510;49.560;19.090;2022-12-07T15:54:25;17.90;;;8.23;;
68507;SDS011;55510;49.560;19.090;2022-12-07T15:57:29;17.80;;;6.67;;
68507;SDS011;55510;49.560;19.090;2022-12-07T16:00:31;16.15;;;6.80;;
68507;SDS011;55510;49.560;19.090;2022-12-07T16:03:32;14.15;;;5.20;;
68507;SDS011;55510;49.560;19.090;2022-12-07T16:06:33;15.20;;;6.73;;
68507;SDS011;55510;49.560;19.090;2022-12-07T16:09:34;11.50;;;6.07;;
68507;SDS011;55510;49.560;19.090;2022-12-07T16:12:34;12.70;;;6.03;;
68507;SDS011;55510;49.560;19.090;2022-12-07T16:15:39;12.88;;;6.65;;
68507;SDS011;55510;49.560;19.090;2022-12-07T16:18:41;35.35;;;16.95;;
68507;SDS011;55510;49.560;19.090;2022-12-07T16:21:43;50.93;;;21.00;;
68507;SDS011;55510;49.560;19.090;2022-12-07T16:24:44;40.83;;;22.75;;
68507;SDS011;55510;49.560;19.090;2022-12-07T16:27:44;48.37;;;23.87;;
68507;SDS011;55510;49.560;19.090;2022-12-07T16:30:45;53.65;;;26.27;;
68507;SDS011;55510;49.560;19.090;2022-12-07T16:33:46;54.27;;;20.03;;
68507;SDS011;55510;49.560;19.090;2022-12-07T16:36:47;76.32;;;26.63;;
68507;SDS011;55510;49.560;19.090;2022-12-07T16:39:48;76.80;;;24.45;;
68507;SDS011;55510;49.560;19.090;2022-12-07T16:42:49;23.90;;;8.47;;
68507;SDS011;55510;49.560;19.090;2022-12-07T16:45:50;41.83;;;13.43;;
68507;SDS011;55510;49.560;19.090;2022-12-07T16:48:50;80.63;;;24.07;;
68507;SDS011;55510;49.560;19.090;2022-12-07T16:51:51;40.33;;;12.73;;
68507;SDS011;55510;49.560;19.090;2022-12-07T16:54:52;59.73;;;16.90;;
68507;SDS011;55510;49.560;19.090;2022-12-07T16:57:53;56.35;;;16.60;;
68507;SDS011;55510;49.560;19.090;2022-12-07T17:00:53;41.60;;;13.67;;
68507;SDS011;55510;49.560;19.090;2022-12-07T17:03:55;36.38;;;11.82;;
68507;SDS011;55510;49.560;19.090;2022-12-07T17:06:57;54.08;;;17.35;;
68507;SDS011;55510;49.560;19.090;2022-12-07T17:09:59;43.78;;;15.10;;
68507;SDS011;55510;49.560;19.090;2022-12-07T17:12:59;21.70;;;8.67;;
68507;SDS011;55510;49.560;19.090;2022-12-07T17:16:04;31.42;;;10.82;;
68507;SDS011;55510;49.560;19.090;2022-12-07T17:19:07;37.00;;;11.55;;
68507;SDS011;55510;49.560;19.090;2022-12-07T17:22:09;23.87;;;7.77;;
68507;SDS011;55510;49.560;19.090;2022-12-07T17:25:12;38.25;;;12.55;;
68507;SDS011;55510;49.560;19.090;2022-12-07T17:28:14;35.13;;;12.48;;
68507;SDS011;55510;49.560;19.090;2022-12-07T17:31:15;17.50;;;5.97;;
68507;SDS011;55510;49.560;19.090;2022-12-07T17:34:17;21.50;;;7.32;;
68507;SDS011;55510;49.560;19.090;2022-12-07T17:37:18;22.30;;;9.73;;
68507;SDS011;55510;49.560;19.090;2022-12-07T17:40:19;21.83;;;9.33;;
68507;SDS011;55510;49.560;19.090;2022-12-07T17:43:20;17.67;;;6.73;;
68507;SDS011;55510;49.560;19.090;2022-12-07T17:46:21;17.20;;;7.75;;
68507;SDS011;55510;49.560;19.090;2022-12-07T17:49:22;28.40;;;12.43;;
68507;SDS011;55510;49.560;19.090;2022-12-07T17:52:23;25.08;;;10.25;;
68507;SDS011;55510;49.560;19.090;2022-12-07T17:55:41;42.53;;;17.95;;
68507;SDS011;55510;49.560;19.090;2022-12-07T17:58:42;40.27;;;18.33;;
68507;SDS011;55510;49.560;19.090;2022-12-07T18:01:43;27.95;;;13.43;;
68507;SDS011;55510;49.560;19.090;2022-12-07T18:04:44;20.00;;;9.57;;
68507;SDS011;55510;49.560;19.090;2022-12-07T18:07:47;18.67;;;8.83;;
68507;SDS011;55510;49.560;19.090;2022-12-07T18:10:48;22.70;;;10.73;;
68507;SDS011;55510;49.560;19.090;2022-12-07T18:13:48;20.63;;;9.10;;
68507;SDS011;55510;49.560;19.090;2022-12-07T18:16:49;22.38;;;9.63;;
68507;SDS011;55510;49.560;19.090;2022-12-07T18:19:50;16.53;;;6.57;;
68507;SDS011;55510;49.560;19.090;2022-12-07T18:22:51;16.63;;;7.27;;
68507;SDS011;55510;49.560;19.090;2022-12-07T18:25:51;14.47;;;6.13;;
68507;SDS011;55510;49.560;19.090;2022-12-07T18:28:53;14.30;;;5.15;;
68507;SDS011;55510;49.560;19.090;2022-12-07T18:31:53;14.18;;;5.75;;
68507;SDS011;55510;49.560;19.090;2022-12-07T18:34:54;13.27;;;4.97;;
68507;SDS011;55510;49.560;19.090;2022-12-07T18:37:55;8.90;;;4.13;;
68507;SDS011;55510;49.560;19.090;2022-12-07T18:40:56;10.98;;;3.88;;
68507;SDS011;55510;49.560;19.090;2022-12-07T18:43:56;12.07;;;3.97;;
68507;SDS011;55510;49.560;19.090;2022-12-07T18:46:57;9.17;;;3.87;;
68507;SDS011;55510;49.560;19.090;2022-12-07T18:49:58;8.25;;;3.10;;
68507;SDS011;55510;49.560;19.090;2022-12-07T18:53:00;9.37;;;3.80;;
68507;SDS011;55510;49.560;19.090;2022-12-07T18:56:07;9.25;;;3.53;;
68507;SDS011;55510;49.560;19.090;2022-12-07T18:59:12;10.43;;;4.60;;
68507;SDS011;55510;49.560;19.090;2022-12-07T19:02:40;12.77;;;4.95;;
68507;SDS011;55510;49.560;19.090;2022-12-07T19:05:41;26.65;;;9.90;;
68507;SDS011;55510;49.560;19.090;2022-12-07T19:08:42;13.73;;;4.60;;
68507;SDS011;55510;49.560;19.090;2022-12-07T19:11:43;11.57;;;4.47;;
68507;SDS011;55510;49.560;19.090;2022-12-07T19:14:50;11.65;;;3.97;;
68507;SDS011;55510;49.560;19.090;2022-12-07T19:17:51;16.37;;;5.47;;
68507;SDS011;55510;49.560;19.090;2022-12-07T19:20:51;8.48;;;3.35;;
68507;SDS011;55510;49.560;19.090;2022-12-07T19:23:52;9.47;;;4.17;;
68507;SDS011;55510;49.560;19.090;2022-12-07T19:26:54;8.50;;;3.15;;
68507;SDS011;55510;49.560;19.090;2022-12-07T19:29:55;6.18;;;2.70;;
68507;SDS011;55510;49.560;19.090;2022-12-07T19:32:56;7.87;;;2.67;;
68507;SDS011;55510;49.560;19.090;2022-12-07T19:35:56;8.43;;;3.15;;
68507;SDS011;55510;49.560;19.090;2022-12-07T19:38:57;8.63;;;2.73;;
68507;SDS011;55510;49.560;19.090;2022-12-07T19:41:58;8.73;;;2.40;;
68507;SDS011;55510;49.560;19.090;2022-12-07T19:44:59;9.97;;;3.23;;
68507;SDS011;55510;49.560;19.090;2022-12-07T19:48:00;8.63;;;2.85;;
68507;SDS011;55510;49.560;19.090;2022-12-07T19:51:01;11.97;;;4.50;;
68507;SDS011;55510;49.560;19.090;2022-12-07T19:54:03;10.27;;;3.30;;
68507;SDS011;55510;49.560;19.090;2022-12-07T19:57:04;8.30;;;2.88;;
68507;SDS011;55510;49.560;19.090;2022-12-07T20:00:06;10.37;;;3.63;;
68507;SDS011;55510;49.560;19.090;2022-12-07T20:03:08;12.70;;;5.60;;
68507;SDS011;55510;49.560;19.090;2022-12-07T20:06:13;14.55;;;6.38;;
68507;SDS011;55510;49.560;19.090;2022-12-07T20:09:16;11.35;;;4.07;;